createdAt,value
2022-09-06T00:00:09.621Z,8.6
2022-09-06T00:01:18.182Z,8.9
2022-09-06T00:02:26.562Z,8.9
2022-09-06T00:03:34.911Z,8.9
2022-09-06T00:04:43.430Z,8.6
2022-09-06T00:05:51.778Z,8.6
2022-09-06T00:07:00.122Z,8.6
2022-09-06T00:08:08.680Z,8.5
2022-09-06T00:09:17.042Z,8.5
2022-09-06T00:10:25.372Z,8.5
2022-09-06T00:11:33.927Z,8.8
2022-09-06T00:12:42.312Z,8.8
2022-09-06T00:13:50.646Z,8.8
2022-09-06T00:14:59.213Z,9.4
2022-09-06T00:16:07.622Z,9.4
2022-09-06T00:17:15.917Z,9.4
2022-09-06T00:18:24.539Z,10
2022-09-06T00:19:32.840Z,10
2022-09-06T00:20:41.175Z,10
2022-09-06T00:21:49.735Z,10.2
2022-09-06T00:22:58.091Z,10.2
2022-09-06T00:24:06.454Z,10.2
2022-09-06T00:25:14.988Z,10.8
2022-09-06T00:26:23.341Z,10.8
2022-09-06T00:27:31.727Z,10.8
2022-09-06T00:28:40.268Z,9.6
2022-09-06T00:29:48.613Z,9.6
2022-09-06T00:30:57.013Z,9.6
2022-09-06T00:32:05.516Z,9.4
2022-09-06T00:33:13.872Z,9.4
2022-09-06T00:34:22.238Z,9.4
2022-09-06T00:35:30.772Z,9.4
2022-09-06T00:36:39.143Z,9.4
2022-09-06T00:37:47.522Z,9.4
2022-09-06T00:38:56.070Z,9.4
2022-09-06T00:40:04.505Z,9.4
2022-09-06T00:41:12.774Z,9.4
2022-09-06T00:42:21.353Z,9
2022-09-06T00:43:29.723Z,9
2022-09-06T00:44:38.063Z,9
2022-09-06T00:45:46.615Z,9
2022-09-06T00:46:54.981Z,9
2022-09-06T00:48:03.322Z,9
2022-09-06T00:49:11.871Z,9.7
2022-09-06T00:50:20.243Z,9.7
2022-09-06T00:51:28.577Z,9.7
2022-09-06T00:52:37.150Z,10.1
2022-09-06T00:53:45.495Z,10.1
2022-09-06T00:54:53.822Z,10.1
2022-09-06T00:56:02.398Z,10
2022-09-06T00:57:10.743Z,10
2022-09-06T00:58:19.098Z,10
2022-09-06T00:59:27.643Z,8.9
2022-09-06T01:00:35.981Z,8.9
2022-09-06T01:01:44.415Z,8.9
2022-09-06T01:02:52.981Z,9.2
2022-09-06T01:04:01.258Z,9.2
2022-09-06T01:05:09.596Z,9.2
2022-09-06T01:06:18.152Z,10.3
2022-09-06T01:07:26.510Z,10.3
2022-09-06T01:08:34.863Z,10.3
2022-09-06T01:09:43.408Z,9.6
2022-09-06T01:10:51.775Z,9.6
2022-09-06T01:12:00.126Z,9.6
2022-09-06T01:13:08.680Z,10.1
2022-09-06T01:14:17.022Z,10.1
2022-09-06T01:15:25.402Z,10.1
2022-09-06T01:16:33.921Z,9.8
2022-09-06T01:17:42.284Z,9.8
2022-09-06T01:18:50.639Z,9.8
2022-09-06T01:19:59.185Z,9.3
2022-09-06T01:21:07.555Z,9.3
2022-09-06T01:22:15.910Z,9.3
2022-09-06T01:23:24.458Z,9.6
2022-09-06T01:24:32.809Z,9.6
2022-09-06T01:25:41.150Z,9.6
2022-09-06T01:26:49.701Z,10.3
2022-09-06T01:27:58.060Z,10.3
2022-09-06T01:29:06.410Z,10.3
2022-09-06T01:30:14.951Z,9.9
2022-09-06T01:31:23.364Z,9.9
2022-09-06T01:32:31.654Z,9.9
2022-09-06T01:33:40.201Z,9.9
2022-09-06T01:34:48.550Z,9.9
2022-09-06T01:35:56.895Z,9.9
2022-09-06T01:37:12.656Z,10.3
2022-09-06T01:38:13.802Z,10.3
2022-09-06T01:39:22.157Z,10.3
2022-09-06T01:40:30.708Z,9.9
2022-09-06T01:41:39.076Z,9.9
2022-09-06T01:42:47.443Z,9.9
2022-09-06T01:43:55.982Z,10.4
2022-09-06T01:45:04.323Z,10.4
2022-09-06T01:46:12.686Z,10.4
2022-09-06T01:47:21.232Z,10.3
2022-09-06T01:48:29.576Z,10.3
2022-09-06T01:49:37.912Z,10.3
2022-09-06T01:50:46.473Z,10.7
2022-09-06T01:51:54.841Z,10.7
2022-09-06T01:53:03.178Z,10.7
2022-09-06T01:54:11.723Z,10.5
2022-09-06T01:55:20.072Z,10.5
2022-09-06T01:56:28.416Z,10.5
2022-09-06T01:57:36.986Z,10.4
2022-09-06T01:58:45.321Z,10.4
2022-09-06T01:59:53.668Z,10.4
2022-09-06T02:01:02.281Z,11.6
2022-09-06T02:02:10.665Z,11.6
2022-09-06T02:03:18.939Z,11.6
2022-09-06T02:04:27.493Z,10.8
2022-09-06T02:05:35.832Z,10.8
2022-09-06T02:06:44.184Z,10.8
2022-09-06T02:07:52.751Z,10.6
2022-09-06T02:09:01.078Z,10.6
2022-09-06T02:10:09.416Z,10.6
2022-09-06T02:11:17.989Z,10.7
2022-09-06T02:12:26.347Z,10.7
2022-09-06T02:13:34.706Z,10.7
2022-09-06T02:14:43.250Z,9.8
2022-09-06T02:15:51.593Z,9.8
2022-09-06T02:17:00.044Z,9.8
2022-09-06T02:18:18.737Z,11
2022-09-06T02:19:27.553Z,11
2022-09-06T02:20:36.988Z,11
2022-09-06T02:21:46.074Z,10.8
2022-09-06T02:22:54.400Z,10.8
2022-09-06T02:24:02.757Z,10.8
2022-09-06T02:25:11.299Z,11.8
2022-09-06T02:26:19.663Z,11.8
2022-09-06T02:27:29.247Z,11.8
2022-09-06T02:28:36.562Z,10.8
2022-09-06T02:29:44.909Z,10.8
2022-09-06T02:30:53.341Z,10.8
2022-09-06T02:32:01.803Z,11.3
2022-09-06T02:33:10.135Z,11.3
2022-09-06T02:34:18.497Z,11.3
2022-09-06T02:35:27.059Z,12.8
2022-09-06T02:36:35.421Z,12.8
2022-09-06T02:37:43.776Z,12.8
2022-09-06T02:38:52.327Z,11.5
2022-09-06T02:40:00.691Z,11.5
2022-09-06T02:41:09.009Z,11.5
2022-09-06T02:42:17.599Z,12.5
2022-09-06T02:43:25.902Z,12.5
2022-09-06T02:44:34.259Z,12.5
2022-09-06T02:45:42.907Z,11.7
2022-09-06T02:46:55.015Z,11.7
2022-09-06T02:47:59.534Z,11.7
2022-09-06T02:49:08.089Z,12.1
2022-09-06T02:50:16.439Z,12.1
2022-09-06T02:51:24.786Z,12.1
2022-09-06T02:52:33.361Z,12.3
2022-09-06T02:53:41.700Z,12.3
2022-09-06T02:54:50.065Z,12.3
2022-09-06T02:55:58.651Z,12.9
2022-09-06T02:57:06.986Z,12.9
2022-09-06T02:58:15.345Z,12.9
2022-09-06T02:59:23.910Z,13.9
2022-09-06T03:00:32.259Z,13.9
2022-09-06T03:01:40.733Z,13.9
2022-09-06T03:02:49.236Z,13.8
2022-09-06T03:03:57.515Z,13.8
2022-09-06T03:05:05.860Z,13.8
2022-09-06T03:06:14.435Z,14
2022-09-06T03:07:22.790Z,14
2022-09-06T03:08:31.133Z,14
2022-09-06T03:09:39.691Z,14.4
2022-09-06T03:10:48.041Z,14.4
2022-09-06T03:11:56.380Z,14.4
2022-09-06T03:13:04.938Z,12.8
2022-09-06T03:14:13.270Z,12.8
2022-09-06T03:15:21.631Z,12.8
2022-09-06T03:16:30.225Z,14.5
2022-09-06T03:17:38.526Z,14.5
2022-09-06T03:18:46.889Z,14.5
2022-09-06T03:19:55.449Z,13.6
2022-09-06T03:21:03.802Z,13.6
2022-09-06T03:22:12.148Z,13.6
2022-09-06T03:23:20.703Z,13.5
2022-09-06T03:24:29.049Z,13.5
2022-09-06T03:25:37.392Z,13.5
2022-09-06T03:26:45.936Z,14.7
2022-09-06T03:27:54.279Z,14.7
2022-09-06T03:29:02.621Z,14.7
2022-09-06T03:30:11.184Z,13.9
2022-09-06T03:31:19.610Z,13.9
2022-09-06T03:32:27.851Z,13.9
2022-09-06T03:33:36.414Z,14.5
2022-09-06T03:34:44.794Z,14.5
2022-09-06T03:35:53.136Z,14.5
2022-09-06T03:37:01.698Z,14.7
2022-09-06T03:38:10.050Z,14.7
2022-09-06T03:39:18.383Z,14.7
2022-09-06T03:40:26.955Z,14.7
2022-09-06T03:41:35.326Z,14.7
2022-09-06T03:42:43.663Z,14.7
2022-09-06T03:43:52.238Z,14.3
2022-09-06T03:45:00.584Z,14.3
2022-09-06T03:46:09.015Z,14.3
2022-09-06T03:47:19.536Z,15.2
2022-09-06T03:48:25.909Z,15.2
2022-09-06T03:49:34.192Z,15.2
2022-09-06T03:50:42.760Z,15.2
2022-09-06T03:51:51.108Z,15.2
2022-09-06T03:52:59.462Z,15.2
2022-09-06T03:54:08.031Z,14.2
2022-09-06T03:55:16.374Z,14.2
2022-09-06T03:56:24.723Z,14.2
2022-09-06T03:57:33.261Z,13.6
2022-09-06T03:58:41.632Z,13.6
2022-09-06T03:59:49.966Z,13.6
2022-09-06T04:00:58.585Z,13.9
2022-09-06T04:02:07.060Z,13.9
2022-09-06T04:03:15.243Z,13.9
2022-09-06T04:04:23.802Z,13.9
2022-09-06T04:05:32.183Z,13.9
2022-09-06T04:06:40.523Z,13.9
2022-09-06T04:07:49.090Z,14
2022-09-06T04:08:57.454Z,14
2022-09-06T04:10:05.798Z,14
2022-09-06T04:11:14.366Z,13.3
2022-09-06T04:12:22.699Z,13.3
2022-09-06T04:13:31.049Z,13.3
2022-09-06T04:14:39.609Z,12.9
2022-09-06T04:15:47.943Z,12.9
2022-09-06T04:16:56.384Z,12.9
2022-09-06T04:18:08.611Z,13.8
2022-09-06T04:19:13.181Z,13.8
2022-09-06T04:20:21.537Z,13.8
2022-09-06T04:21:30.080Z,14.3
2022-09-06T04:22:38.430Z,14.3
2022-09-06T04:23:46.787Z,14.3
2022-09-06T04:24:55.346Z,14.1
2022-09-06T04:26:03.722Z,14.1
2022-09-06T04:27:12.058Z,14.1
2022-09-06T04:28:20.621Z,14.1
2022-09-06T04:29:28.951Z,14.1
2022-09-06T04:30:37.309Z,14.1
2022-09-06T04:31:45.935Z,15.9
2022-09-06T04:32:54.194Z,15.9
2022-09-06T04:34:02.536Z,15.9
2022-09-06T04:35:11.102Z,16.200001
2022-09-06T04:36:19.436Z,16.200001
2022-09-06T04:37:27.773Z,16.200001
2022-09-06T04:38:36.340Z,14.7
2022-09-06T04:39:44.702Z,14.7
2022-09-06T04:40:53.016Z,14.7
2022-09-06T04:42:01.564Z,14.3
2022-09-06T04:43:09.897Z,14.3
2022-09-06T04:44:18.254Z,14.3
2022-09-06T04:45:26.875Z,15
2022-09-06T04:46:35.156Z,15
2022-09-06T04:47:43.499Z,15
2022-09-06T04:48:52.069Z,15.8
2022-09-06T04:50:00.405Z,15.8
2022-09-06T04:51:08.757Z,15.8
2022-09-06T04:52:17.317Z,14.9
2022-09-06T04:53:25.653Z,14.9
2022-09-06T04:54:33.999Z,14.9
2022-09-06T04:55:42.556Z,16.6
2022-09-06T04:56:50.905Z,16.6
2022-09-06T04:57:59.232Z,16.6
2022-09-06T04:59:07.783Z,15.9
2022-09-06T05:00:16.145Z,15.9
2022-09-06T05:01:24.547Z,15.9
2022-09-06T05:02:33.116Z,17.1
2022-09-06T05:03:41.400Z,17.1
2022-09-06T05:04:49.727Z,17.1
2022-09-06T05:05:58.286Z,17.6
2022-09-06T05:07:06.645Z,17.6
2022-09-06T05:08:14.972Z,17.6
2022-09-06T05:09:23.525Z,17
2022-09-06T05:10:31.898Z,17
2022-09-06T05:11:40.232Z,17
2022-09-06T05:12:48.779Z,16.799999
2022-09-06T05:13:57.127Z,16.799999
2022-09-06T05:15:05.470Z,16.799999
2022-09-06T05:16:14.050Z,17.9
2022-09-06T05:17:22.361Z,17.9
2022-09-06T05:18:30.917Z,17.9
2022-09-06T05:19:39.256Z,17.6
2022-09-06T05:20:47.617Z,17.6
2022-09-06T05:21:55.947Z,17.6
2022-09-06T05:23:04.508Z,17
2022-09-06T05:24:12.855Z,17
2022-09-06T05:25:21.218Z,17
2022-09-06T05:26:29.767Z,16.6
2022-09-06T05:27:38.130Z,16.6
2022-09-06T05:28:46.488Z,16.6
2022-09-06T05:29:55.026Z,18.1
2022-09-06T05:31:03.382Z,18.1
2022-09-06T05:32:11.723Z,18.1
2022-09-06T05:33:20.283Z,18.200001
2022-09-06T05:34:28.638Z,18.200001
2022-09-06T05:35:36.987Z,18.200001
2022-09-06T05:36:45.544Z,16.799999
2022-09-06T05:37:53.869Z,16.799999
2022-09-06T05:39:02.216Z,16.799999
2022-09-06T05:40:10.852Z,19.200001
2022-09-06T05:41:19.125Z,19.200001
2022-09-06T05:42:27.457Z,19.200001
2022-09-06T05:43:36.007Z,18.5
2022-09-06T05:44:44.352Z,18.5
2022-09-06T05:45:52.723Z,18.5
2022-09-06T05:47:01.227Z,18.299999
2022-09-06T05:48:09.590Z,18.299999
2022-09-06T05:49:17.969Z,18.299999
2022-09-06T05:50:26.519Z,17.4
2022-09-06T05:51:34.863Z,17.4
2022-09-06T05:52:43.199Z,17.4
2022-09-06T05:53:51.758Z,18
2022-09-06T05:55:00.113Z,18
2022-09-06T05:56:08.464Z,18
2022-09-06T05:57:17.017Z,18.200001
2022-09-06T05:58:25.476Z,18.200001
2022-09-06T05:59:33.710Z,18.200001
2022-09-06T06:00:42.260Z,18.200001
2022-09-06T06:01:50.640Z,18.200001
2022-09-06T06:02:58.941Z,18.200001
2022-09-06T06:04:07.999Z,18.700001
2022-09-06T06:05:16.314Z,18.700001
2022-09-06T06:06:24.666Z,18.700001
2022-09-06T06:07:33.212Z,17.6
2022-09-06T06:08:41.558Z,17.6
2022-09-06T06:09:49.915Z,17.6
2022-09-06T06:10:58.463Z,18.6
2022-09-06T06:12:06.808Z,18.6
2022-09-06T06:13:15.165Z,18.6
2022-09-06T06:14:23.711Z,17.799999
2022-09-06T06:15:32.056Z,17.799999
2022-09-06T06:16:40.452Z,17.799999
2022-09-06T06:17:48.977Z,18.4
2022-09-06T06:18:57.336Z,18.4
2022-09-06T06:20:05.670Z,18.4
2022-09-06T06:21:14.225Z,17.5
2022-09-06T06:22:22.579Z,17.5
2022-09-06T06:23:30.904Z,17.5
2022-09-06T06:24:39.480Z,18.1
2022-09-06T06:25:47.826Z,18.1
2022-09-06T06:26:56.156Z,18.1
2022-09-06T06:28:04.696Z,18.4
2022-09-06T06:29:13.059Z,18.4
2022-09-06T06:30:21.395Z,18.4
2022-09-06T06:31:29.991Z,18.799999
2022-09-06T06:32:38.295Z,18.799999
2022-09-06T06:33:46.649Z,18.799999
2022-09-06T06:34:55.209Z,18.9
2022-09-06T06:36:03.544Z,18.9
2022-09-06T06:37:11.883Z,18.9
2022-09-06T06:38:20.432Z,17.9
2022-09-06T06:39:28.802Z,17.9
2022-09-06T06:40:37.122Z,17.9
2022-09-06T06:41:45.665Z,17.6
2022-09-06T06:42:54.026Z,17.6
2022-09-06T06:44:02.379Z,17.6
2022-09-06T06:45:10.944Z,16.200001
2022-09-06T06:46:19.371Z,16.200001
2022-09-06T06:47:27.614Z,16.200001
2022-09-06T06:48:36.160Z,17.4
2022-09-06T06:49:44.507Z,17.4
2022-09-06T06:50:52.842Z,17.4
2022-09-06T06:52:01.411Z,17
2022-09-06T06:53:09.758Z,17
2022-09-06T06:54:18.108Z,17
2022-09-06T06:55:26.657Z,17.200001
2022-09-06T06:56:34.997Z,17.200001
2022-09-06T06:57:43.335Z,17.200001
2022-09-06T06:58:51.911Z,17.9
2022-09-06T07:00:00.242Z,17.9
2022-09-06T07:01:08.631Z,17.9
2022-09-06T07:02:17.306Z,17.799999
2022-09-06T07:03:25.454Z,17.799999
2022-09-06T07:04:33.811Z,17.799999
2022-09-06T07:07:59.064Z,17.6
2022-09-06T07:09:07.641Z,17.6
2022-09-06T07:11:24.857Z,17.6
2022-09-06T07:12:32.875Z,17.9
2022-09-06T07:13:41.232Z,17.9
2022-09-06T07:14:49.573Z,17.9
2022-09-06T07:15:58.169Z,17.4
2022-09-06T07:17:08.775Z,17.4
2022-09-06T07:18:14.819Z,17.4
2022-09-06T07:20:31.973Z,18.299999
2022-09-06T07:21:40.066Z,18.299999
2022-09-06T07:22:48.593Z,18.5
2022-09-06T07:25:05.287Z,18.5
2022-09-06T07:26:13.843Z,17.5
2022-09-06T07:28:30.549Z,17.5
2022-09-06T07:29:39.086Z,17
2022-09-06T07:30:47.445Z,17
2022-09-06T07:32:11.154Z,17
2022-09-06T07:33:04.343Z,16.299999
2022-09-06T07:34:12.688Z,16.299999
2022-09-06T07:35:21.042Z,16.299999
2022-09-06T07:36:29.591Z,17.5
2022-09-06T07:37:37.928Z,17.5
2022-09-06T07:38:46.285Z,17.5
2022-09-06T07:39:54.942Z,16.9
2022-09-06T07:41:03.189Z,16.9
2022-09-06T07:42:11.533Z,16.9
2022-09-06T07:43:20.091Z,16.5
2022-09-06T07:44:28.433Z,16.5
2022-09-06T07:45:36.783Z,16.5
2022-09-06T07:46:45.327Z,15.9
2022-09-06T07:49:02.023Z,15.9
2022-09-06T07:51:18.914Z,14.9
2022-09-06T07:53:36.281Z,13.1
2022-09-06T07:54:44.214Z,13.1
2022-09-06T07:55:52.537Z,13.1
2022-09-06T07:57:01.072Z,13.7
2022-09-06T07:58:09.426Z,13.7
2022-09-06T07:59:17.759Z,13.7
2022-09-06T08:00:26.307Z,13.3
2022-09-06T08:01:34.948Z,13.3
2022-09-06T08:02:43.153Z,13.3
2022-09-06T08:03:51.698Z,13.6
2022-09-06T08:05:00.186Z,13.6
2022-09-06T08:06:08.525Z,13.6
2022-09-06T08:09:33.621Z,13
2022-09-06T08:10:42.158Z,13.8
2022-09-06T08:11:50.479Z,13.8
2022-09-06T08:12:58.812Z,13.8
2022-09-06T08:14:07.347Z,13.4
2022-09-06T08:15:15.682Z,13.4
2022-09-06T08:16:24.074Z,13.4
2022-09-06T08:17:32.569Z,13.9
2022-09-06T08:18:40.908Z,13.9
2022-09-06T08:19:49.250Z,13.9
2022-09-06T08:20:57.798Z,13.6
2022-09-06T08:22:06.129Z,13.6
2022-09-06T08:23:14.495Z,13.6
2022-09-06T08:24:23.050Z,13.9
2022-09-06T08:25:31.401Z,13.9
2022-09-06T08:26:39.741Z,13.9
2022-09-06T08:27:48.290Z,13.7
2022-09-06T08:28:56.643Z,13.7
2022-09-06T08:30:04.998Z,13.7
2022-09-06T08:31:13.552Z,13.4
2022-09-06T08:32:21.855Z,13.4
2022-09-06T08:33:30.211Z,13.4
2022-09-06T08:34:38.773Z,13.2
2022-09-06T08:35:47.113Z,13.2
2022-09-06T08:36:55.466Z,13.2
2022-09-06T08:38:04.033Z,13.3
2022-09-06T08:39:12.364Z,13.3
2022-09-06T08:40:20.675Z,13.3
2022-09-06T08:41:29.215Z,13.4
2022-09-06T08:42:37.547Z,13.4
2022-09-06T08:43:46.230Z,13.4
2022-09-06T08:46:02.789Z,12.7
2022-09-06T08:47:11.135Z,12.7
2022-09-06T08:48:19.688Z,14.4
2022-09-06T08:49:28.034Z,14.4
2022-09-06T08:50:36.372Z,14.4
2022-09-06T08:51:44.919Z,14.2
2022-09-06T08:53:16.024Z,14.2
2022-09-06T08:54:01.599Z,14.2
2022-09-06T08:55:10.152Z,14.8
2022-09-06T08:56:18.493Z,14.8
2022-09-06T08:57:26.832Z,14.8
2022-09-06T08:58:35.384Z,16.200001
2022-09-06T08:59:43.745Z,16.200001
2022-09-06T09:00:52.160Z,16.200001
2022-09-06T09:02:00.668Z,14.8
2022-09-06T09:03:11.087Z,14.8
2022-09-06T09:04:17.312Z,14.8
2022-09-06T09:05:25.867Z,14.2
2022-09-06T09:06:34.210Z,14.2
2022-09-06T09:07:42.561Z,14.2
2022-09-06T09:08:51.122Z,13
2022-09-06T09:09:59.465Z,13
2022-09-06T09:11:07.811Z,13
2022-09-06T09:12:16.364Z,18.299999
2022-09-06T09:13:24.708Z,18.299999
2022-09-06T09:14:33.043Z,18.299999
2022-09-06T09:15:41.603Z,13.3
2022-09-06T09:16:49.941Z,13.3
2022-09-06T09:17:58.289Z,13.3
2022-09-06T09:19:06.843Z,12.6
2022-09-06T09:20:15.183Z,12.6
2022-09-06T09:21:26.902Z,12.6
2022-09-06T09:22:32.080Z,12.6
2022-09-06T09:23:40.409Z,12.6
2022-09-06T09:24:48.759Z,12.6
2022-09-06T09:25:57.325Z,12.6
2022-09-06T09:27:05.658Z,12.6
2022-09-06T09:28:14.019Z,12.6
2022-09-06T09:29:26.961Z,12.5
2022-09-06T09:31:39.446Z,12.5
2022-09-06T09:32:47.844Z,10.6
2022-09-06T09:33:56.181Z,10.6
2022-09-06T09:35:04.519Z,10.6
2022-09-06T09:36:13.070Z,7.3
2022-09-06T09:38:29.928Z,7.3
2022-09-06T09:39:38.441Z,7.2
2022-09-06T09:40:46.666Z,7.2
2022-09-06T09:41:55.022Z,7.2
2022-09-06T09:43:03.586Z,6.7
2022-09-06T09:44:11.927Z,6.7
2022-09-06T09:45:20.263Z,6.7
2022-09-06T09:46:33.349Z,7.9
2022-09-06T09:47:41.592Z,7.9
2022-09-06T09:48:49.935Z,7.9
2022-09-06T09:49:58.472Z,6.4
2022-09-06T09:51:06.804Z,6.4
2022-09-06T09:52:15.146Z,6.4
2022-09-06T09:53:23.707Z,6.4
2022-09-06T09:54:32.032Z,6.4
2022-09-06T09:55:40.369Z,6.4
2022-09-06T09:56:48.943Z,6.4
2022-09-06T09:57:57.292Z,6.4
2022-09-06T09:59:05.617Z,6.4
2022-09-06T10:00:14.257Z,6.4
2022-09-06T10:01:22.509Z,6.4
2022-09-06T10:02:30.842Z,6.4
2022-09-06T10:04:47.775Z,7.6
2022-09-06T10:06:00.494Z,7.6
2022-09-06T10:08:12.984Z,6
2022-09-06T10:09:21.318Z,6
2022-09-06T10:10:29.884Z,6
2022-09-06T10:11:38.219Z,6
2022-09-06T10:12:46.559Z,6
2022-09-06T10:13:55.111Z,6.2
2022-09-06T10:15:06.840Z,6.2
2022-09-06T10:16:11.849Z,6.2
2022-09-06T10:17:20.344Z,6.3
2022-09-06T10:18:28.864Z,6.3
2022-09-06T10:19:37.048Z,6.3
2022-09-06T10:20:45.605Z,6.1
2022-09-06T10:21:53.926Z,6.1
2022-09-06T10:23:02.262Z,6.1
2022-09-06T10:24:26.590Z,6.3
2022-09-06T10:25:19.163Z,6.3
2022-09-06T10:26:27.514Z,6.3
2022-09-06T10:27:39.893Z,6.2
2022-09-06T10:28:44.450Z,6.2
2022-09-06T10:29:52.773Z,6.2
2022-09-06T10:31:01.332Z,6.3
2022-09-06T10:32:09.644Z,6.3
2022-09-06T10:33:17.989Z,6.3
2022-09-06T10:34:26.543Z,9.2
2022-09-06T10:35:34.885Z,9.2
2022-09-06T10:36:43.234Z,9.2
2022-09-06T10:37:51.772Z,6.7
2022-09-06T10:39:03.639Z,6.7
2022-09-06T10:40:08.542Z,6.7
2022-09-06T10:41:16.993Z,6.9
2022-09-06T10:42:25.341Z,6.9
2022-09-06T10:43:33.684Z,6.9
2022-09-06T10:44:42.248Z,6.8
2022-09-06T10:45:50.584Z,6.8
2022-09-06T10:46:58.985Z,6.8
2022-09-06T10:48:10.189Z,6.2
2022-09-06T10:49:15.820Z,6.2
2022-09-06T10:50:24.159Z,6.2
2022-09-06T10:51:32.706Z,7.1
2022-09-06T10:52:41.050Z,7.1
2022-09-06T10:53:49.380Z,7.1
2022-09-06T10:54:57.932Z,8.7
2022-09-06T10:56:06.277Z,8.7
2022-09-06T10:58:23.282Z,8.6
2022-09-06T11:00:39.860Z,8.6
2022-09-06T11:01:48.556Z,7.8
2022-09-06T11:04:06.896Z,7.8
2022-09-06T11:06:23.337Z,7.6
2022-09-06T11:07:30.407Z,7.6
2022-09-06T11:08:46.415Z,9.5
2022-09-06T11:09:47.295Z,9.5
2022-09-06T11:10:55.626Z,9.5
2022-09-06T11:12:04.168Z,5.7
2022-09-06T11:13:12.504Z,5.7
2022-09-06T11:14:20.840Z,5.7
2022-09-06T11:15:29.389Z,4.6
2022-09-06T11:16:37.739Z,4.6
2022-09-06T11:17:46.100Z,4.6
2022-09-06T11:18:54.655Z,5.4
2022-09-06T11:20:02.984Z,5.4
2022-09-06T11:21:11.334Z,5.4
2022-09-06T11:22:19.864Z,4.6
2022-09-06T11:23:28.364Z,4.6
2022-09-06T11:24:36.554Z,4.6
2022-09-06T11:25:45.109Z,4.5
2022-09-06T11:26:53.450Z,4.5
2022-09-06T11:28:01.788Z,4.5
2022-09-06T11:29:10.332Z,5.2
2022-09-06T11:30:18.660Z,5.2
2022-09-06T11:32:35.551Z,5.1
2022-09-06T11:33:44.061Z,5.1
2022-09-06T11:34:52.402Z,5.1
2022-09-06T11:36:00.945Z,5.2
2022-09-06T11:37:09.275Z,5.2
2022-09-06T11:38:17.610Z,5.2
2022-09-06T11:40:34.504Z,4.6
2022-09-06T11:41:42.834Z,4.6
2022-09-06T11:42:51.378Z,4.7
2022-09-06T11:43:59.711Z,4.7
2022-09-06T11:45:08.055Z,4.7
2022-09-06T11:46:20.402Z,5.1
2022-09-06T11:47:24.961Z,5.1
2022-09-06T11:48:33.283Z,5.1
2022-09-06T11:49:41.850Z,5
2022-09-06T11:50:50.173Z,5
2022-09-06T11:51:58.518Z,5
2022-09-06T11:53:07.073Z,4.7
2022-09-06T11:54:15.407Z,4.7
2022-09-06T11:55:23.721Z,4.7
2022-09-06T11:56:32.339Z,4.5
2022-09-06T11:57:40.693Z,4.5
2022-09-06T11:58:49.101Z,4.5
2022-09-06T11:59:57.635Z,4.2
2022-09-06T12:01:05.976Z,4.2
2022-09-06T12:02:14.330Z,4.2
2022-09-06T12:04:31.209Z,5.7
2022-09-06T12:05:39.548Z,5.7
2022-09-06T12:06:48.099Z,5.1
2022-09-06T12:07:56.456Z,5.1
2022-09-06T12:09:04.803Z,5.1
2022-09-06T12:10:13.363Z,5.4
2022-09-06T12:11:21.696Z,5.4
2022-09-06T12:12:30.032Z,5.4
2022-09-06T12:13:38.580Z,7.1
2022-09-06T12:14:46.984Z,7.1
2022-09-06T12:15:55.309Z,7.1
2022-09-06T12:17:03.802Z,5.4
2022-09-06T12:18:12.146Z,5.4
2022-09-06T12:19:20.492Z,5.4
2022-09-06T12:20:29.046Z,5.4
2022-09-06T12:21:37.373Z,5.4
2022-09-06T12:22:45.717Z,5.4
2022-09-06T12:23:55.452Z,6.4
2022-09-06T12:25:04.622Z,6.4
2022-09-06T12:26:12.964Z,6.4
2022-09-06T12:27:21.542Z,5.1
2022-09-06T12:28:29.910Z,5.1
2022-09-06T12:29:38.250Z,5.1
2022-09-06T12:30:46.799Z,5.8
2022-09-06T12:31:55.176Z,5.8
2022-09-06T12:33:03.516Z,5.8
2022-09-06T12:34:12.051Z,5.6
2022-09-06T12:36:28.736Z,5.6
2022-09-06T12:37:37.312Z,6.5
2022-09-06T12:38:45.642Z,6.5
2022-09-06T12:39:54.024Z,6.5
2022-09-06T12:41:02.578Z,7.7
2022-09-06T12:42:11.306Z,7.7
2022-09-06T12:43:19.684Z,7.7
2022-09-06T12:44:28.242Z,7.5
2022-09-06T12:45:36.590Z,7.5
2022-09-06T12:46:44.978Z,7.5
2022-09-06T12:47:53.497Z,8.5
2022-09-06T12:49:05.094Z,8.5
2022-09-06T12:50:13.432Z,8.5
2022-09-06T12:51:21.997Z,7.1
2022-09-06T12:52:30.335Z,7.1
2022-09-06T12:53:38.797Z,7.1
2022-09-06T12:54:47.364Z,7.7
2022-09-06T12:55:55.702Z,7.7
2022-09-06T12:57:04.059Z,7.7
2022-09-06T12:58:12.600Z,7.7
2022-09-06T12:59:20.938Z,7.7
2022-09-06T13:00:29.268Z,7.7
2022-09-06T13:01:37.887Z,7.9
2022-09-06T13:02:46.319Z,7.9
2022-09-06T13:03:54.509Z,7.9
2022-09-06T13:05:03.052Z,7.7
2022-09-06T13:06:11.402Z,7.7
2022-09-06T13:07:19.761Z,7.7
2022-09-06T13:08:28.439Z,9
2022-09-06T13:09:36.636Z,9
2022-09-06T13:10:44.970Z,9
2022-09-06T13:11:54.450Z,7.7
2022-09-06T13:14:35.788Z,7.7
2022-09-06T13:15:44.804Z,7.9
2022-09-06T13:16:53.139Z,7.9
2022-09-06T13:18:01.494Z,7.9
2022-09-06T13:19:10.073Z,7.8
2022-09-06T13:20:18.442Z,7.8
2022-09-06T13:21:26.798Z,7.8
2022-09-06T13:22:35.378Z,10
2022-09-06T13:23:43.722Z,10
2022-09-06T13:24:52.077Z,10
2022-09-06T13:26:00.639Z,7.6
2022-09-06T13:27:09.060Z,7.6
2022-09-06T13:28:17.409Z,7.6
2022-09-06T13:29:25.987Z,7
2022-09-06T13:30:34.349Z,7
2022-09-06T13:31:42.780Z,7
2022-09-06T13:32:51.264Z,6.9
2022-09-06T13:33:59.662Z,6.9
2022-09-06T13:35:08.030Z,6.9
2022-09-06T13:36:16.602Z,7.2
2022-09-06T13:37:24.957Z,7.2
2022-09-06T13:38:33.314Z,7.2
2022-09-06T13:39:41.958Z,8
2022-09-06T13:41:10.053Z,8
2022-09-06T13:41:58.631Z,8
2022-09-06T13:43:07.195Z,8.5
2022-09-06T13:44:15.540Z,8.5
2022-09-06T13:45:23.898Z,8.5
2022-09-06T13:46:32.568Z,9.8
2022-09-06T13:47:40.823Z,9.8
2022-09-06T13:48:49.188Z,9.8
2022-09-06T13:49:57.755Z,8.2
2022-09-06T13:51:06.107Z,8.2
2022-09-06T13:52:14.450Z,8.2
2022-09-06T13:53:23.005Z,9.7
2022-09-06T13:54:31.377Z,9.7
2022-09-06T13:55:39.710Z,9.7
2022-09-06T13:56:48.273Z,8.4
2022-09-06T13:57:56.625Z,8.4
2022-09-06T13:59:04.994Z,8.4
2022-09-06T14:00:13.534Z,8.3
2022-09-06T14:01:21.940Z,8.3
2022-09-06T14:02:30.288Z,8.3
2022-09-06T14:03:38.801Z,8.3
2022-09-06T14:04:47.170Z,8.3
2022-09-06T14:05:55.487Z,8.3
2022-09-06T14:07:04.055Z,8.7
2022-09-06T14:08:12.374Z,8.7
2022-09-06T14:09:20.771Z,8.7
2022-09-06T14:10:29.319Z,9.1
2022-09-06T14:11:37.667Z,9.1
2022-09-06T14:12:46.037Z,9.1
2022-09-06T14:13:54.609Z,8.5
2022-09-06T14:15:02.966Z,8.5
2022-09-06T14:16:11.344Z,8.5
2022-09-06T14:17:19.869Z,9.7
2022-09-06T14:18:28.468Z,9.7
2022-09-06T14:19:36.568Z,9.7
2022-09-06T14:20:45.159Z,9.4
2022-09-06T14:21:53.519Z,9.4
2022-09-06T14:23:01.883Z,9.4
2022-09-06T14:24:10.452Z,9.7
2022-09-06T14:25:18.803Z,9.7
2022-09-06T14:26:27.175Z,9.7
2022-09-06T14:27:35.722Z,9.3
2022-09-06T14:28:44.080Z,9.3
2022-09-06T15:03:46.287Z,0
2022-09-06T15:04:54.621Z,0
2022-09-06T15:06:02.976Z,0
2022-09-06T15:07:11.561Z,9.1
2022-09-06T15:08:19.904Z,9.1
2022-09-06T15:09:28.282Z,9.1
2022-09-06T15:10:37.060Z,8.9
2022-09-06T15:11:45.426Z,8.9
2022-09-06T15:12:53.764Z,8.9
2022-09-06T15:14:02.355Z,9.3
2022-09-06T15:15:10.706Z,9.3
2022-09-06T15:16:19.038Z,9.3
2022-09-06T15:17:27.582Z,7.6
2022-09-06T15:18:35.944Z,7.6
2022-09-06T15:19:44.281Z,7.6
2022-09-06T15:20:52.853Z,8.5
2022-09-06T15:22:01.215Z,8.5
2022-09-06T15:23:25.774Z,8.5
2022-09-06T15:24:18.186Z,9.5
2022-09-06T15:25:26.549Z,9.5
2022-09-06T15:26:34.907Z,9.5
2022-09-06T15:27:43.465Z,8.4
2022-09-06T15:28:52.275Z,8.4
2022-09-06T15:30:00.626Z,8.4
2022-09-06T15:31:09.248Z,8.3
2022-09-06T15:32:17.546Z,8.3
2022-09-06T15:33:26.146Z,8.3
2022-09-06T15:34:34.742Z,8.2
2022-09-06T15:35:43.185Z,8.2
2022-09-06T15:36:51.535Z,8.2
2022-09-06T15:38:00.118Z,7.9
2022-09-06T15:39:08.472Z,7.9
2022-09-06T15:40:16.881Z,7.9
2022-09-06T15:41:25.443Z,8.5
2022-09-06T15:42:33.709Z,8.5
2022-09-06T15:43:42.056Z,8.5
2022-09-06T15:44:50.601Z,7.1
2022-09-06T15:45:58.980Z,7.1
2022-09-06T15:47:07.273Z,7.1
2022-09-06T15:48:15.831Z,7.6
2022-09-06T15:49:27.748Z,7.6
2022-09-06T15:50:50.133Z,7.6
2022-09-06T15:51:41.074Z,8.3
2022-09-06T15:52:49.411Z,8.3
2022-09-06T15:53:57.774Z,8.3
2022-09-06T15:55:06.305Z,7.6
2022-09-06T15:56:14.636Z,7.6
2022-09-06T15:57:22.986Z,7.6
2022-09-06T15:58:31.534Z,8.1
2022-09-06T15:59:39.881Z,8.1
2022-09-06T16:00:51.070Z,8.1
2022-09-06T16:01:56.845Z,9.7
2022-09-06T16:03:05.194Z,9.7
2022-09-06T16:04:13.470Z,9.7
2022-09-06T16:06:30.396Z,7.1
2022-09-06T16:07:38.717Z,7.1
2022-09-06T16:08:47.282Z,7.8
2022-09-06T16:09:55.624Z,7.8
2022-09-06T16:11:03.974Z,7.8
2022-09-06T16:12:12.537Z,8.2
2022-09-06T16:13:20.882Z,8.2
2022-09-06T16:14:29.248Z,8.2
2022-09-06T16:15:37.789Z,8.4
2022-09-06T16:16:46.177Z,8.4
2022-09-06T16:17:55.631Z,8.4
2022-09-06T16:19:04.194Z,7.2
2022-09-06T16:20:12.531Z,7.2
2022-09-06T16:21:20.853Z,7.2
2022-09-06T16:22:29.391Z,7.3
2022-09-06T16:23:37.737Z,7.3